KOZ weather

Ouzinkie Airport
Ouzinkie, Alaska, United States

Public forecast

Using degrees Fahrenheit for public forecast. Weather courtesy of forecast.io.

Closest aviation weather report (METAR) to Ouzinkie Airport

Closest report is Kodiak Airport, 10.5 nm (19.5 km) S. Retrieved 2019/11/13 19:33 UTC (0 seconds ago):

PADQ 131933Z 07005KT 1/2SM FG OVC004 08/08 A2919

Closest aviation forecast (TAF) to Ouzinkie Airport

Closest forecast is Kodiak Airport, 10.5 nm (19.5 km) S. Retrieved 2019/11/13 18:42 UTC (26 minutes ago):

TAF PADQ 131741Z 1318/1418 06017KT 1 1/2SM -RA BR OVC007 TEMPO 1318/1320 OVC004 FM132200 05009KT 5SM -SHRA BR FEW003 OVC009 FM140200 05006KT P6SM VCSH SCT003 SCT009 OVC025